Ana Sayfa
METAR-TAF:

METAR-TAF

Havaalanları :

New River Valley Airport

Dublin, Virginia, Amerika Birleşik Devletleri

Enlem: 37-08N, Boylam: 080-41W, yükseklik: 642 m

Güncel hava durumu gözlemi

Rapor saat 06:35 UTC de 10 dakika önce yapıldı.
Rüzgar batıdan 9 kt
Sıcaklık 0°C
Nem 93%
Basınç 1013 hPa
Görüş mesafesi: 11.3 km
1900 ft yükseklikte parçalı bulutlu
2600 ft yükseklikte parçalı çok bulutlu
4700 ft yükseklikte çok bulutlu
hafif kar

METAR: KPSK 290635Z AUTO 27009KT 7SM -SN SCT019 BKN026 OVC047 00/M01 A2992 RMK AO2 T10051012

Saat: 01:45 (06:45 UTC)


TAF: eksik

4.000'den fazla havaalanı için hava durumu gözlemleri ve tahminleri (METAR ve TAF raporları).

Kullanılabilir istasyonlar harita üzerinde sarı ve kırmızı noktalarla gösterilir.

İstasyonun adını görmek için fareyi noktanın üzerinde gezdirin.

Sonrasında hava gözlem ve tahminlerini görmek için tıklayın.

Haritayı değiştirmek için: yaklaştırmak için siyah artı işaretli yeşil düğmeye ve uzaklaştırmak için de eksi işaretli düğmeye hızla tıklayın; bitişik haritalar için yeşil okları kullanın.


METAR-TAF: